sensor_id;sensor_type;location;lat;lon;timestamp;temperature;humidity
5196;DHT22;2617;51.006;12.436;2022-10-31T00:02:45;12.50;99.90
5196;DHT22;2617;51.006;12.436;2022-10-31T00:07:47;12.60;99.90
5196;DHT22;2617;51.006;12.436;2022-10-31T00:12:50;12.80;99.90
5196;DHT22;2617;51.006;12.436;2022-10-31T00:17:52;12.80;99.90
5196;DHT22;2617;51.006;12.436;2022-10-31T00:22:57;12.80;99.90
5196;DHT22;2617;51.006;12.436;2022-10-31T00:27:56;12.80;99.90
5196;DHT22;2617;51.006;12.436;2022-10-31T00:32:57;12.80;99.90
5196;DHT22;2617;51.006;12.436;2022-10-31T00:37:59;12.70;99.90
5196;DHT22;2617;51.006;12.436;2022-10-31T00:43:01;12.60;99.90
5196;DHT22;2617;51.006;12.436;2022-10-31T00:48:03;12.60;99.90
5196;DHT22;2617;51.006;12.436;2022-10-31T00:53:05;12.50;99.90
5196;DHT22;2617;51.006;12.436;2022-10-31T00:58:06;12.50;99.90
5196;DHT22;2617;51.006;12.436;2022-10-31T01:03:08;12.50;99.90
5196;DHT22;2617;51.006;12.436;2022-10-31T01:08:10;12.40;99.90
5196;DHT22;2617;51.006;12.436;2022-10-31T01:13:12;12.30;99.90
5196;DHT22;2617;51.006;12.436;2022-10-31T01:18:15;12.10;99.90
5196;DHT22;2617;51.006;12.436;2022-10-31T01:23:16;12.10;99.90
5196;DHT22;2617;51.006;12.436;2022-10-31T01:28:18;12.10;99.90
5196;DHT22;2617;51.006;12.436;2022-10-31T01:33:21;12.00;99.90
5196;DHT22;2617;51.006;12.436;2022-10-31T01:38:22;11.90;99.90
5196;DHT22;2617;51.006;12.436;2022-10-31T01:43:26;11.80;99.90
5196;DHT22;2617;51.006;12.436;2022-10-31T01:48:27;11.80;99.90
5196;DHT22;2617;51.006;12.436;2022-10-31T01:53:28;11.80;99.90
5196;DHT22;2617;51.006;12.436;2022-10-31T01:58:30;11.80;99.90
5196;DHT22;2617;51.006;12.436;2022-10-31T02:03:32;11.70;99.90
5196;DHT22;2617;51.006;12.436;2022-10-31T02:08:34;11.70;99.90
5196;DHT22;2617;51.006;12.436;2022-10-31T02:13:35;11.60;99.90
5196;DHT22;2617;51.006;12.436;2022-10-31T02:18:37;11.60;99.90
5196;DHT22;2617;51.006;12.436;2022-10-31T02:23:53;11.50;99.90
5196;DHT22;2617;51.006;12.436;2022-10-31T02:28:58;11.50;99.90
5196;DHT22;2617;51.006;12.436;2022-10-31T02:34:19;11.40;99.90
5196;DHT22;2617;51.006;12.436;2022-10-31T02:39:40;11.20;99.90
5196;DHT22;2617;51.006;12.436;2022-10-31T02:44:43;10.90;99.90
5196;DHT22;2617;51.006;12.436;2022-10-31T02:49:45;10.50;99.90
5196;DHT22;2617;51.006;12.436;2022-10-31T02:54:45;10.50;99.90
5196;DHT22;2617;51.006;12.436;2022-10-31T02:59:48;10.40;99.90
5196;DHT22;2617;51.006;12.436;2022-10-31T03:05:08;10.40;99.90
5196;DHT22;2617;51.006;12.436;2022-10-31T03:10:16;10.40;99.90
5196;DHT22;2617;51.006;12.436;2022-10-31T03:15:22;10.40;99.90
5196;DHT22;2617;51.006;12.436;2022-10-31T03:20:24;10.50;99.90
5196;DHT22;2617;51.006;12.436;2022-10-31T03:25:24;10.50;99.90
5196;DHT22;2617;51.006;12.436;2022-10-31T03:30:25;10.50;99.90
5196;DHT22;2617;51.006;12.436;2022-10-31T03:35:27;10.40;99.90
5196;DHT22;2617;51.006;12.436;2022-10-31T03:40:29;10.40;99.90
5196;DHT22;2617;51.006;12.436;2022-10-31T03:45:31;10.50;99.90
5196;DHT22;2617;51.006;12.436;2022-10-31T03:50:38;10.50;99.90
5196;DHT22;2617;51.006;12.436;2022-10-31T03:55:41;10.60;99.90
5196;DHT22;2617;51.006;12.436;2022-10-31T04:00:43;10.70;99.90
5196;DHT22;2617;51.006;12.436;2022-10-31T04:05:45;10.70;99.90
5196;DHT22;2617;51.006;12.436;2022-10-31T04:10:46;10.60;99.90
5196;DHT22;2617;51.006;12.436;2022-10-31T04:15:47;10.60;99.90
5196;DHT22;2617;51.006;12.436;2022-10-31T04:20:49;10.20;99.90
5196;DHT22;2617;51.006;12.436;2022-10-31T04:25:51;10.00;99.90
5196;DHT22;2617;51.006;12.436;2022-10-31T04:30:53;9.80;99.90
5196;DHT22;2617;51.006;12.436;2022-10-31T04:35:55;9.80;99.90
5196;DHT22;2617;51.006;12.436;2022-10-31T04:40:57;9.70;99.90
5196;DHT22;2617;51.006;12.436;2022-10-31T04:45:59;9.50;99.90
5196;DHT22;2617;51.006;12.436;2022-10-31T04:51:01;9.50;99.90
5196;DHT22;2617;51.006;12.436;2022-10-31T04:56:04;9.40;99.90
5196;DHT22;2617;51.006;12.436;2022-10-31T05:01:05;9.40;99.90
5196;DHT22;2617;51.006;12.436;2022-10-31T05:06:07;9.30;99.90
5196;DHT22;2617;51.006;12.436;2022-10-31T05:11:09;9.20;99.90
5196;DHT22;2617;51.006;12.436;2022-10-31T05:16:11;9.10;99.90
5196;DHT22;2617;51.006;12.436;2022-10-31T05:21:13;8.90;99.90
5196;DHT22;2617;51.006;12.436;2022-10-31T05:26:15;8.90;99.90
5196;DHT22;2617;51.006;12.436;2022-10-31T05:31:17;8.90;99.90
5196;DHT22;2617;51.006;12.436;2022-10-31T05:36:18;8.80;99.90
5196;DHT22;2617;51.006;12.436;2022-10-31T05:41:21;8.80;99.90
5196;DHT22;2617;51.006;12.436;2022-10-31T05:46:24;8.80;99.90
5196;DHT22;2617;51.006;12.436;2022-10-31T05:51:25;8.80;99.90
5196;DHT22;2617;51.006;12.436;2022-10-31T05:56:27;8.70;99.90
5196;DHT22;2617;51.006;12.436;2022-10-31T06:01:29;8.70;99.90
5196;DHT22;2617;51.006;12.436;2022-10-31T06:06:30;8.70;99.90
5196;DHT22;2617;51.006;12.436;2022-10-31T06:11:33;8.60;99.90
5196;DHT22;2617;51.006;12.436;2022-10-31T06:16:35;8.60;99.90
5196;DHT22;2617;51.006;12.436;2022-10-31T06:21:38;8.70;99.90
5196;DHT22;2617;51.006;12.436;2022-10-31T06:26:40;8.60;99.90
5196;DHT22;2617;51.006;12.436;2022-10-31T06:31:41;8.70;99.90
5196;DHT22;2617;51.006;12.436;2022-10-31T06:36:43;8.80;99.90
5196;DHT22;2617;51.006;12.436;2022-10-31T06:41:46;8.80;99.90
5196;DHT22;2617;51.006;12.436;2022-10-31T06:46:46;8.90;99.90
5196;DHT22;2617;51.006;12.436;2022-10-31T06:51:48;9.00;99.90
5196;DHT22;2617;51.006;12.436;2022-10-31T06:56:51;9.10;99.90
5196;DHT22;2617;51.006;12.436;2022-10-31T07:01:53;9.10;99.90
5196;DHT22;2617;51.006;12.436;2022-10-31T07:06:55;9.50;99.90
5196;DHT22;2617;51.006;12.436;2022-10-31T07:11:57;9.40;99.90
5196;DHT22;2617;51.006;12.436;2022-10-31T07:16:59;9.70;99.90
5196;DHT22;2617;51.006;12.436;2022-10-31T07:22:00;9.90;99.90
5196;DHT22;2617;51.006;12.436;2022-10-31T07:27:02;10.10;99.90
5196;DHT22;2617;51.006;12.436;2022-10-31T07:32:05;10.60;99.90
5196;DHT22;2617;51.006;12.436;2022-10-31T07:37:06;10.50;99.90
5196;DHT22;2617;51.006;12.436;2022-10-31T07:42:09;11.10;99.90
5196;DHT22;2617;51.006;12.436;2022-10-31T07:47:11;11.30;99.90
5196;DHT22;2617;51.006;12.436;2022-10-31T07:52:13;11.30;99.90
5196;DHT22;2617;51.006;12.436;2022-10-31T07:57:15;11.90;99.90
5196;DHT22;2617;51.006;12.436;2022-10-31T08:02:17;11.90;99.90
5196;DHT22;2617;51.006;12.436;2022-10-31T08:07:19;12.10;99.90
5196;DHT22;2617;51.006;12.436;2022-10-31T08:12:21;12.60;99.90
5196;DHT22;2617;51.006;12.436;2022-10-31T08:17:24;12.60;99.90
5196;DHT22;2617;51.006;12.436;2022-10-31T08:22:26;12.80;99.90
5196;DHT22;2617;51.006;12.436;2022-10-31T08:27:27;13.10;99.90
5196;DHT22;2617;51.006;12.436;2022-10-31T08:32:30;13.50;99.90
5196;DHT22;2617;51.006;12.436;2022-10-31T08:37:32;13.70;99.90
5196;DHT22;2617;51.006;12.436;2022-10-31T08:42:34;13.70;99.90
5196;DHT22;2617;51.006;12.436;2022-10-31T08:47:36;13.90;99.90
5196;DHT22;2617;51.006;12.436;2022-10-31T08:52:38;14.40;99.90
5196;DHT22;2617;51.006;12.436;2022-10-31T08:57:40;14.30;99.90
5196;DHT22;2617;51.006;12.436;2022-10-31T09:02:42;14.80;99.90
5196;DHT22;2617;51.006;12.436;2022-10-31T09:07:44;14.70;99.90
5196;DHT22;2617;51.006;12.436;2022-10-31T09:12:46;14.90;99.90
5196;DHT22;2617;51.006;12.436;2022-10-31T09:17:48;15.20;99.90
5196;DHT22;2617;51.006;12.436;2022-10-31T09:22:56;15.10;99.90
5196;DHT22;2617;51.006;12.436;2022-10-31T09:27:58;15.50;99.90
5196;DHT22;2617;51.006;12.436;2022-10-31T09:33:00;15.60;99.90
5196;DHT22;2617;51.006;12.436;2022-10-31T09:38:05;15.60;99.90
5196;DHT22;2617;51.006;12.436;2022-10-31T09:43:14;15.60;99.90
5196;DHT22;2617;51.006;12.436;2022-10-31T09:48:27;15.70;99.90
5196;DHT22;2617;51.006;12.436;2022-10-31T09:53:29;15.70;99.90
5196;DHT22;2617;51.006;12.436;2022-10-31T09:58:28;15.80;99.90
5196;DHT22;2617;51.006;12.436;2022-10-31T10:03:36;16.00;99.90
5196;DHT22;2617;51.006;12.436;2022-10-31T10:08:37;16.00;99.90
5196;DHT22;2617;51.006;12.436;2022-10-31T10:18:59;16.10;99.90
5196;DHT22;2617;51.006;12.436;2022-10-31T10:24:10;16.20;99.90
5196;DHT22;2617;51.006;12.436;2022-10-31T10:29:33;16.30;99.90
5196;DHT22;2617;51.006;12.436;2022-10-31T10:34:35;16.30;99.90
5196;DHT22;2617;51.006;12.436;2022-10-31T10:39:45;16.50;99.90
5196;DHT22;2617;51.006;12.436;2022-10-31T10:44:48;16.50;99.90
5196;DHT22;2617;51.006;12.436;2022-10-31T10:49:57;16.80;99.90
5196;DHT22;2617;51.006;12.436;2022-10-31T10:55:03;17.00;99.90
5196;DHT22;2617;51.006;12.436;2022-10-31T11:05:03;17.00;99.90
5196;DHT22;2617;51.006;12.436;2022-10-31T11:10:11;16.80;99.90
5196;DHT22;2617;51.006;12.436;2022-10-31T11:15:20;17.10;99.90
5196;DHT22;2617;51.006;12.436;2022-10-31T11:20:28;17.00;99.90
5196;DHT22;2617;51.006;12.436;2022-10-31T11:25:28;17.20;99.90
5196;DHT22;2617;51.006;12.436;2022-10-31T11:30:30;17.30;99.90
5196;DHT22;2617;51.006;12.436;2022-10-31T11:35:31;17.30;99.90
5196;DHT22;2617;51.006;12.436;2022-10-31T11:40:33;17.50;99.90
5196;DHT22;2617;51.006;12.436;2022-10-31T11:45:35;17.70;99.90
5196;DHT22;2617;51.006;12.436;2022-10-31T11:50:39;17.70;99.90
5196;DHT22;2617;51.006;12.436;2022-10-31T11:55:40;17.70;99.90
5196;DHT22;2617;51.006;12.436;2022-10-31T12:00:47;17.70;99.90
5196;DHT22;2617;51.006;12.436;2022-10-31T12:05:44;17.80;99.90
5196;DHT22;2617;51.006;12.436;2022-10-31T12:10:56;17.90;99.90
5196;DHT22;2617;51.006;12.436;2022-10-31T12:15:56;17.80;99.90
5196;DHT22;2617;51.006;12.436;2022-10-31T12:26:16;17.80;99.90
5196;DHT22;2617;51.006;12.436;2022-10-31T12:47:09;17.60;99.90
5196;DHT22;2617;51.006;12.436;2022-10-31T12:52:21;17.60;99.90
5196;DHT22;2617;51.006;12.436;2022-10-31T12:57:23;17.70;99.90
5196;DHT22;2617;51.006;12.436;2022-10-31T13:02:27;17.60;99.90
5196;DHT22;2617;51.006;12.436;2022-10-31T13:07:31;17.60;99.90
5196;DHT22;2617;51.006;12.436;2022-10-31T13:12:32;17.80;99.90
5196;DHT22;2617;51.006;12.436;2022-10-31T13:17:34;17.90;99.90
5196;DHT22;2617;51.006;12.436;2022-10-31T13:22:36;17.90;99.90
5196;DHT22;2617;51.006;12.436;2022-10-31T13:27:50;18.10;99.90
5196;DHT22;2617;51.006;12.436;2022-10-31T13:32:56;18.00;99.90
5196;DHT22;2617;51.006;12.436;2022-10-31T13:38:22;17.90;99.90
5196;DHT22;2617;51.006;12.436;2022-10-31T13:43:34;17.80;99.90
5196;DHT22;2617;51.006;12.436;2022-10-31T13:48:35;17.70;99.90
5196;DHT22;2617;51.006;12.436;2022-10-31T13:53:42;17.60;99.90
5196;DHT22;2617;51.006;12.436;2022-10-31T13:58:54;17.60;99.90
5196;DHT22;2617;51.006;12.436;2022-10-31T14:03:47;17.40;99.90
5196;DHT22;2617;51.006;12.436;2022-10-31T14:08:49;17.30;99.90
5196;DHT22;2617;51.006;12.436;2022-10-31T14:13:51;17.20;99.90
5196;DHT22;2617;51.006;12.436;2022-10-31T14:19:02;17.10;99.90
5196;DHT22;2617;51.006;12.436;2022-10-31T14:24:12;17.10;99.90
5196;DHT22;2617;51.006;12.436;2022-10-31T14:34:32;16.80;99.90
5196;DHT22;2617;51.006;12.436;2022-10-31T14:39:45;16.80;99.90
5196;DHT22;2617;51.006;12.436;2022-10-31T14:44:54;16.70;99.90
5196;DHT22;2617;51.006;12.436;2022-10-31T14:55:19;16.50;99.90
5196;DHT22;2617;51.006;12.436;2022-10-31T15:00:23;16.40;99.90
5196;DHT22;2617;51.006;12.436;2022-10-31T15:05:24;16.40;99.90
5196;DHT22;2617;51.006;12.436;2022-10-31T15:10:27;16.20;99.90
5196;DHT22;2617;51.006;12.436;2022-10-31T15:15:28;16.20;99.90
5196;DHT22;2617;51.006;12.436;2022-10-31T15:20:33;15.90;99.90
5196;DHT22;2617;51.006;12.436;2022-10-31T15:25:33;15.90;99.90
5196;DHT22;2617;51.006;12.436;2022-10-31T15:30:35;15.70;99.90
5196;DHT22;2617;51.006;12.436;2022-10-31T15:35:37;15.70;99.90
5196;DHT22;2617;51.006;12.436;2022-10-31T15:40:38;15.60;99.90
5196;DHT22;2617;51.006;12.436;2022-10-31T15:45:41;15.50;99.90
5196;DHT22;2617;51.006;12.436;2022-10-31T15:50:52;15.30;99.90
5196;DHT22;2617;51.006;12.436;2022-10-31T15:55:55;15.00;99.90
5196;DHT22;2617;51.006;12.436;2022-10-31T16:01:00;15.00;99.90
5196;DHT22;2617;51.006;12.436;2022-10-31T16:06:02;14.90;99.90
5196;DHT22;2617;51.006;12.436;2022-10-31T16:11:23;14.70;99.90
5196;DHT22;2617;51.006;12.436;2022-10-31T16:16:23;14.70;99.90
5196;DHT22;2617;51.006;12.436;2022-10-31T16:21:30;14.60;99.90
5196;DHT22;2617;51.006;12.436;2022-10-31T16:26:31;14.50;99.90
5196;DHT22;2617;51.006;12.436;2022-10-31T16:31:37;14.40;99.90
5196;DHT22;2617;51.006;12.436;2022-10-31T16:36:37;14.30;99.90
5196;DHT22;2617;51.006;12.436;2022-10-31T16:41:40;14.20;99.90
5196;DHT22;2617;51.006;12.436;2022-10-31T16:46:42;14.20;99.90
5196;DHT22;2617;51.006;12.436;2022-10-31T16:51:44;14.10;99.90
5196;DHT22;2617;51.006;12.436;2022-10-31T16:56:46;14.10;99.90
5196;DHT22;2617;51.006;12.436;2022-10-31T17:01:49;14.10;99.90
5196;DHT22;2617;51.006;12.436;2022-10-31T17:06:51;14.10;99.90
5196;DHT22;2617;51.006;12.436;2022-10-31T17:11:54;13.90;99.90
5196;DHT22;2617;51.006;12.436;2022-10-31T17:16:56;13.90;99.90
5196;DHT22;2617;51.006;12.436;2022-10-31T17:21:57;13.80;99.90
5196;DHT22;2617;51.006;12.436;2022-10-31T17:26:59;13.70;99.90
5196;DHT22;2617;51.006;12.436;2022-10-31T17:32:03;13.70;99.90
5196;DHT22;2617;51.006;12.436;2022-10-31T17:37:05;13.60;99.90
5196;DHT22;2617;51.006;12.436;2022-10-31T17:42:07;13.60;99.90
5196;DHT22;2617;51.006;12.436;2022-10-31T17:47:09;13.50;99.90
5196;DHT22;2617;51.006;12.436;2022-10-31T17:52:11;13.50;99.90
5196;DHT22;2617;51.006;12.436;2022-10-31T17:57:13;13.30;99.90
5196;DHT22;2617;51.006;12.436;2022-10-31T18:02:16;13.20;99.90
5196;DHT22;2617;51.006;12.436;2022-10-31T18:07:18;13.10;99.90
5196;DHT22;2617;51.006;12.436;2022-10-31T18:12:20;13.10;99.90
5196;DHT22;2617;51.006;12.436;2022-10-31T18:17:23;13.10;99.90
5196;DHT22;2617;51.006;12.436;2022-10-31T18:22:24;13.10;99.90
5196;DHT22;2617;51.006;12.436;2022-10-31T18:27:27;13.00;99.90
5196;DHT22;2617;51.006;12.436;2022-10-31T18:32:29;13.00;99.90
5196;DHT22;2617;51.006;12.436;2022-10-31T18:37:30;12.90;99.90
5196;DHT22;2617;51.006;12.436;2022-10-31T18:42:33;12.90;99.90
5196;DHT22;2617;51.006;12.436;2022-10-31T18:47:34;12.80;99.90
5196;DHT22;2617;51.006;12.436;2022-10-31T18:52:37;12.80;99.90
5196;DHT22;2617;51.006;12.436;2022-10-31T18:57:38;12.80;99.90
5196;DHT22;2617;51.006;12.436;2022-10-31T19:02:40;12.70;99.90
5196;DHT22;2617;51.006;12.436;2022-10-31T19:07:43;12.50;99.90
5196;DHT22;2617;51.006;12.436;2022-10-31T19:12:45;12.40;99.90
5196;DHT22;2617;51.006;12.436;2022-10-31T19:17:47;12.40;99.90
5196;DHT22;2617;51.006;12.436;2022-10-31T19:22:49;12.40;99.90
5196;DHT22;2617;51.006;12.436;2022-10-31T19:27:52;12.40;99.90
5196;DHT22;2617;51.006;12.436;2022-10-31T19:32:53;12.30;99.90
5196;DHT22;2617;51.006;12.436;2022-10-31T19:37:55;12.20;99.90
5196;DHT22;2617;51.006;12.436;2022-10-31T19:42:57;12.10;99.90
5196;DHT22;2617;51.006;12.436;2022-10-31T19:47:59;12.20;99.90
5196;DHT22;2617;51.006;12.436;2022-10-31T19:53:01;12.10;99.90
5196;DHT22;2617;51.006;12.436;2022-10-31T19:58:04;12.10;99.90
5196;DHT22;2617;51.006;12.436;2022-10-31T20:03:07;11.90;99.90
5196;DHT22;2617;51.006;12.436;2022-10-31T20:08:17;11.90;99.90
5196;DHT22;2617;51.006;12.436;2022-10-31T20:13:18;11.70;99.90
5196;DHT22;2617;51.006;12.436;2022-10-31T20:18:20;11.70;99.90
5196;DHT22;2617;51.006;12.436;2022-10-31T20:23:22;11.60;99.90
5196;DHT22;2617;51.006;12.436;2022-10-31T20:28:24;11.50;99.90
5196;DHT22;2617;51.006;12.436;2022-10-31T20:33:27;11.40;99.90
5196;DHT22;2617;51.006;12.436;2022-10-31T20:38:28;11.40;99.90
5196;DHT22;2617;51.006;12.436;2022-10-31T20:43:31;11.20;99.90
5196;DHT22;2617;51.006;12.436;2022-10-31T20:48:34;11.10;99.90
5196;DHT22;2617;51.006;12.436;2022-10-31T20:53:36;11.10;99.90
5196;DHT22;2617;51.006;12.436;2022-10-31T20:58:38;11.00;99.90
5196;DHT22;2617;51.006;12.436;2022-10-31T21:03:39;10.90;99.90
5196;DHT22;2617;51.006;12.436;2022-10-31T21:08:41;10.80;99.90
5196;DHT22;2617;51.006;12.436;2022-10-31T21:13:43;10.70;99.90
5196;DHT22;2617;51.006;12.436;2022-10-31T21:18:45;10.60;99.90
5196;DHT22;2617;51.006;12.436;2022-10-31T21:23:52;10.60;99.90
5196;DHT22;2617;51.006;12.436;2022-10-31T21:28:51;10.60;99.90
5196;DHT22;2617;51.006;12.436;2022-10-31T21:33:52;10.60;99.90
5196;DHT22;2617;51.006;12.436;2022-10-31T21:38:54;10.70;99.90
5196;DHT22;2617;51.006;12.436;2022-10-31T21:43:56;10.70;99.90
5196;DHT22;2617;51.006;12.436;2022-10-31T21:49:00;10.80;99.90
5196;DHT22;2617;51.006;12.436;2022-10-31T21:54:01;10.80;99.90
5196;DHT22;2617;51.006;12.436;2022-10-31T21:59:09;10.80;99.90
5196;DHT22;2617;51.006;12.436;2022-10-31T22:04:10;10.80;99.90
5196;DHT22;2617;51.006;12.436;2022-10-31T22:09:13;10.90;99.90
5196;DHT22;2617;51.006;12.436;2022-10-31T22:14:15;10.80;99.90
5196;DHT22;2617;51.006;12.436;2022-10-31T22:19:16;10.80;99.90
5196;DHT22;2617;51.006;12.436;2022-10-31T22:24:18;10.70;99.90
5196;DHT22;2617;51.006;12.436;2022-10-31T22:29:20;10.80;99.90
5196;DHT22;2617;51.006;12.436;2022-10-31T22:34:22;10.70;99.90
5196;DHT22;2617;51.006;12.436;2022-10-31T22:39:24;10.70;99.90
5196;DHT22;2617;51.006;12.436;2022-10-31T22:44:26;10.70;99.90
5196;DHT22;2617;51.006;12.436;2022-10-31T22:49:27;10.70;99.90
5196;DHT22;2617;51.006;12.436;2022-10-31T22:54:29;10.70;99.90
5196;DHT22;2617;51.006;12.436;2022-10-31T22:59:32;10.50;99.90
5196;DHT22;2617;51.006;12.436;2022-10-31T23:04:34;10.50;99.90
5196;DHT22;2617;51.006;12.436;2022-10-31T23:09:35;10.50;99.90
5196;DHT22;2617;51.006;12.436;2022-10-31T23:14:38;10.40;99.90
5196;DHT22;2617;51.006;12.436;2022-10-31T23:19:39;10.30;99.90
5196;DHT22;2617;51.006;12.436;2022-10-31T23:24:42;10.20;99.90
5196;DHT22;2617;51.006;12.436;2022-10-31T23:29:48;10.20;99.90
5196;DHT22;2617;51.006;12.436;2022-10-31T23:34:50;10.10;99.90
5196;DHT22;2617;51.006;12.436;2022-10-31T23:39:51;10.10;99.90
5196;DHT22;2617;51.006;12.436;2022-10-31T23:44:53;10.00;99.90
5196;DHT22;2617;51.006;12.436;2022-10-31T23:49:55;9.80;99.90
5196;DHT22;2617;51.006;12.436;2022-10-31T23:54:57;9.60;99.90
5196;DHT22;2617;51.006;12.436;2022-10-31T23:59:59;9.60;99.90
